Time;durP1;ratioP1;P1;durP2;ratioP2;P2;SDS_P1;SDS_P2;PMS_P1;PMS_P2;Temp;Humidity;BMP_temperature;BMP_pressure;BME280_temperature;BME280_humidity;BME280_pressure;Samples;Min_cycle;Max_cycle;Signal;HPM_P1;HPM_P2
2023/12/02 00:01:56;;;;;;;1.90;1.90;;;0.50;99.90;;;;;;5033594;28;20211;-84
2023/12/02 00:04:22;;;;;;;0.77;0.77;;;0.60;99.90;;;;;;5032728;28;20274;-83
2023/12/02 00:06:48;;;;;;;1.93;1.83;;;0.50;99.90;;;;;;5016183;28;20214;-84
2023/12/02 00:09:13;;;;;;;0.97;0.97;;;0.50;99.90;;;;;;5034264;28;20183;-82
2023/12/02 00:11:39;;;;;;;1.30;1.30;;;0.50;99.90;;;;;;5032692;28;20183;-83
2023/12/02 00:14:05;;;;;;;2.20;2.10;;;0.40;99.90;;;;;;5016219;28;20207;-83
2023/12/02 00:16:31;;;;;;;2.87;2.53;;;0.60;99.90;;;;;;4999864;28;20186;-82
2023/12/02 00:18:56;;;;;;;2.00;1.90;;;0.50;99.90;;;;;;5016708;28;20187;-83
2023/12/02 00:21:22;;;;;;;3.80;3.60;;;0.60;99.90;;;;;;4999878;28;20178;-84
2023/12/02 00:23:48;;;;;;;1.43;1.43;;;0.50;99.90;;;;;;5016051;28;20630;-84
2023/12/02 00:26:14;;;;;;;1.57;1.47;;;0.50;99.90;;;;;;5033390;28;20273;-83
2023/12/02 00:28:39;;;;;;;9.33;2.47;;;0.50;99.90;;;;;;5032336;28;20647;-83
2023/12/02 00:31:06;;;;;;;2.37;2.27;;;0.40;99.90;;;;;;4999862;28;20182;-84
2023/12/02 00:33:31;;;;;;;5.17;4.93;;;0.60;99.90;;;;;;5016231;28;20202;-83
2023/12/02 00:35:57;;;;;;;2.13;2.03;;;0.60;99.90;;;;;;4999156;28;20205;-83
2023/12/02 00:38:23;;;;;;;1.63;1.63;;;0.60;99.90;;;;;;5016442;28;20670;-83
2023/12/02 00:40:49;;;;;;;1.17;1.13;;;0.60;99.90;;;;;;4999534;28;20641;-84
2023/12/02 00:43:14;;;;;;;2.03;1.90;;;0.60;99.90;;;;;;5032527;28;20175;-83
2023/12/02 00:45:40;;;;;;;4.00;2.27;;;0.70;99.90;;;;;;5032116;28;20582;-84
2023/12/02 00:48:06;;;;;;;3.03;1.97;;;0.60;99.90;;;;;;5015724;28;20563;-84
2023/12/02 00:50:32;;;;;;;2.40;2.23;;;0.60;99.90;;;;;;5032615;28;20201;-83
2023/12/02 00:52:57;;;;;;;3.13;2.93;;;0.70;99.90;;;;;;5015851;28;20175;-84
2023/12/02 00:55:23;;;;;;;2.97;1.93;;;0.70;99.90;;;;;;5032910;28;20255;-83
2023/12/02 00:57:49;;;;;;;2.30;2.20;;;0.60;99.90;;;;;;5015840;28;20193;-84
2023/12/02 01:00:16;;;;;;;2.33;2.23;;;0.50;99.90;;;;;;5015119;28;20179;-84
2023/12/02 01:02:42;;;;;;;3.27;3.03;;;0.50;99.90;;;;;;5014799;28;20210;-84
2023/12/02 01:05:09;;;;;;;4.07;3.80;;;0.60;99.90;;;;;;5014955;28;20170;-84
2023/12/02 01:07:35;;;;;;;3.57;3.30;;;0.70;99.90;;;;;;5015397;28;20239;-84
2023/12/02 01:10:01;;;;;;;2.80;1.40;;;0.60;99.90;;;;;;5015758;28;20285;-84
2023/12/02 01:12:27;;;;;;;3.40;3.10;;;0.80;99.90;;;;;;5014918;28;20266;-84
2023/12/02 01:14:53;;;;;;;4.87;4.00;;;0.80;99.90;;;;;;5015181;28;20278;-84
2023/12/02 01:17:18;;;;;;;1.40;1.30;;;0.80;99.90;;;;;;5014903;28;20593;-83
2023/12/02 01:19:45;;;;;;;3.77;3.47;;;0.70;99.90;;;;;;5015133;28;20189;-83
2023/12/02 01:22:12;;;;;;;2.00;1.90;;;0.70;99.90;;;;;;5015436;28;20171;-83
2023/12/02 01:24:38;;;;;;;4.50;2.70;;;0.80;99.90;;;;;;4999445;28;20250;-83
2023/12/02 01:27:06;;;;;;;6.23;2.60;;;0.50;99.90;;;;;;4998336;28;20213;-84
2023/12/02 01:29:32;;;;;;;3.60;3.00;;;0.50;99.90;;;;;;5014617;28;20692;-83
2023/12/02 01:31:57;;;;;;;1.83;1.77;;;0.60;99.90;;;;;;5032392;28;20178;-84
2023/12/02 01:34:23;;;;;;;1.97;1.30;;;0.70;99.90;;;;;;4982725;28;20187;-84
2023/12/02 01:36:49;;;;;;;1.90;1.90;;;0.80;99.90;;;;;;4998457;28;20183;-84
2023/12/02 01:39:15;;;;;;;3.03;2.83;;;0.90;99.90;;;;;;5014915;28;20210;-83
2023/12/02 01:41:40;;;;;;;4.23;3.80;;;0.80;99.90;;;;;;4998143;28;20182;-83
2023/12/02 01:44:06;;;;;;;2.67;2.57;;;0.80;99.90;;;;;;4998747;28;20185;-84
2023/12/02 01:46:32;;;;;;;3.63;3.40;;;0.80;99.90;;;;;;4998345;28;20678;-84
2023/12/02 01:48:59;;;;;;;3.00;2.83;;;0.90;99.90;;;;;;5001182;28;20206;-83
2023/12/02 01:51:26;;;;;;;2.70;2.57;;;0.90;99.90;;;;;;5018594;28;20190;-84
2023/12/02 01:53:52;;;;;;;2.87;2.73;;;0.90;99.90;;;;;;5019587;28;20266;-84
2023/12/02 01:56:19;;;;;;;3.73;3.43;;;0.90;99.90;;;;;;5018522;28;20586;-84
2023/12/02 01:58:49;;;;;;;2.93;2.47;;;0.90;99.90;;;;;;5002961;28;20273;-84
2023/12/02 02:01:15;;;;;;;4.50;3.10;;;0.80;99.90;;;;;;5018384;28;20167;-84
2023/12/02 02:03:41;;;;;;;3.63;3.43;;;0.80;99.90;;;;;;5009719;28;20245;-84
2023/12/02 02:06:10;;;;;;;2.40;2.30;;;0.80;99.90;;;;;;5019014;28;20240;-84
2023/12/02 02:08:36;;;;;;;1.37;1.27;;;1.00;99.90;;;;;;5034889;28;20186;-83
2023/12/02 02:11:02;;;;;;;2.97;2.13;;;0.80;99.90;;;;;;5036177;28;20645;-83
2023/12/02 02:13:28;;;;;;;2.47;2.33;;;0.80;99.90;;;;;;5034935;28;20183;-83
2023/12/02 02:15:54;;;;;;;2.03;1.93;;;0.70;99.90;;;;;;5019031;28;20610;-84
2023/12/02 02:18:20;;;;;;;1.90;1.77;;;0.80;99.90;;;;;;5035054;28;20234;-84
2023/12/02 02:20:53;;;;;;;2.47;1.60;;;0.80;99.90;;;;;;5036122;28;20260;-83
2023/12/02 02:23:20;;;;;;;5.83;2.20;;;0.90;99.90;;;;;;5034736;28;20186;-84
2023/12/02 02:25:50;;;;;;;3.43;1.50;;;0.80;99.90;;;;;;5035722;28;20202;-83
2023/12/02 02:28:24;;;;;;;1.93;1.83;;;0.80;99.90;;;;;;5034325;28;20198;-84
2023/12/02 02:30:51;;;;;;;1.43;1.33;;;0.90;99.90;;;;;;5034222;28;20174;-85
2023/12/02 02:33:17;;;;;;;1.80;1.70;;;1.00;99.90;;;;;;5018676;28;20178;-84
2023/12/02 02:35:43;;;;;;;2.07;1.93;;;1.10;99.90;;;;;;5034483;28;20209;-83
2023/12/02 02:38:09;;;;;;;3.00;2.70;;;1.00;99.90;;;;;;5034143;28;20241;-84
2023/12/02 02:40:35;;;;;;;4.20;3.40;;;0.90;99.90;;;;;;5017575;28;20190;-84
2023/12/02 02:43:01;;;;;;;3.90;2.50;;;1.00;99.90;;;;;;5017742;28;20187;-84
2023/12/02 02:45:26;;;;;;;1.77;1.70;;;0.90;99.90;;;;;;5017583;28;20654;-84
2023/12/02 02:47:53;;;;;;;1.20;1.20;;;0.80;99.90;;;;;;5017343;28;20207;-82
2023/12/02 02:50:19;;;;;;;4.77;2.93;;;0.80;99.90;;;;;;5017696;28;20274;-84
2023/12/02 02:52:45;;;;;;;0.80;0.80;;;0.80;99.90;;;;;;5033790;28;20618;-85
2023/12/02 02:55:11;;;;;;;3.40;2.50;;;0.90;99.90;;;;;;5035278;28;20252;-84
2023/12/02 02:57:37;;;;;;;2.67;2.40;;;0.90;99.90;;;;;;5033857;28;20618;-84
2023/12/02 03:00:09;;;;;;;3.10;1.50;;;1.00;99.90;;;;;;5016855;28;20212;-84
2023/12/02 03:02:38;;;;;;;3.57;3.40;;;1.00;99.90;;;;;;5018427;28;20175;-84
2023/12/02 03:05:05;;;;;;;4.67;4.27;;;1.10;99.90;;;;;;5016989;28;20179;-84
2023/12/02 03:07:31;;;;;;;5.30;2.70;;;1.00;99.90;;;;;;5035122;28;20198;-83
2023/12/02 03:09:58;;;;;;;2.13;2.03;;;1.10;99.90;;;;;;5001279;28;20191;-84
2023/12/02 03:12:24;;;;;;;1.53;1.43;;;1.10;99.90;;;;;;5016883;28;20193;-84
2023/12/02 03:14:51;;;;;;;0.53;0.53;;;1.10;99.90;;;;;;5000633;28;20229;-83
2023/12/02 03:17:16;;;;;;;1.13;1.13;;;1.00;99.90;;;;;;5017188;28;20186;-84
2023/12/02 03:19:42;;;;;;;1.80;1.53;;;1.00;99.90;;;;;;5034729;28;20193;-84
2023/12/02 03:22:08;;;;;;;1.37;1.23;;;1.00;99.90;;;;;;5017439;28;20182;-83
2023/12/02 03:24:33;;;;;;;8.63;3.07;;;1.00;99.90;;;;;;4984205;28;20588;-84
2023/12/02 03:26:59;;;;;;;2.97;2.87;;;1.10;99.90;;;;;;5000689;28;20234;-85
2023/12/02 03:29:25;;;;;;;4.60;3.80;;;1.10;99.90;;;;;;4984027;28;20642;-84
2023/12/02 03:31:50;;;;;;;1.90;1.80;;;0.90;99.90;;;;;;5017198;28;20187;-84
2023/12/02 03:34:19;;;;;;;2.13;1.90;;;0.90;99.90;;;;;;5001169;28;20178;-83
2023/12/02 03:36:44;;;;;;;3.00;2.90;;;0.90;99.90;;;;;;5016357;28;20194;-84
2023/12/02 03:39:12;;;;;;;6.60;1.80;;;1.00;99.90;;;;;;5016668;28;20189;-85
2023/12/02 03:41:42;;;;;;;3.53;3.00;;;0.90;99.90;;;;;;5000205;28;20187;-83
2023/12/02 03:44:08;;;;;;;3.90;1.50;;;0.90;99.90;;;;;;5016724;28;20187;-83
2023/12/02 03:46:35;;;;;;;2.60;2.50;;;0.90;99.90;;;;;;4999942;28;20213;-83
2023/12/02 03:49:01;;;;;;;1.53;1.43;;;0.90;99.90;;;;;;5000046;28;20182;-84
2023/12/02 03:51:27;;;;;;;7.20;2.73;;;0.90;99.90;;;;;;4999880;28;20322;-83
2023/12/02 03:53:52;;;;;;;1.97;1.87;;;1.00;99.90;;;;;;5016816;28;20218;-84
2023/12/02 03:56:19;;;;;;;1.87;1.80;;;1.00;99.90;;;;;;4999793;28;20534;-85
2023/12/02 03:58:45;;;;;;;2.47;2.27;;;1.10;99.90;;;;;;4983987;28;20182;-83
2023/12/02 04:01:11;;;;;;;2.53;2.43;;;1.10;99.90;;;;;;5016367;28;20185;-84
2023/12/02 04:03:37;;;;;;;2.07;1.97;;;1.10;99.90;;;;;;4990634;28;20621;-83
2023/12/02 04:06:03;;;;;;;2.43;2.23;;;1.00;99.90;;;;;;5032695;28;20336;-84
2023/12/02 04:08:29;;;;;;;1.03;1.03;;;1.00;99.90;;;;;;5032280;28;20680;-83
2023/12/02 04:10:55;;;;;;;2.23;2.03;;;1.20;99.90;;;;;;5015136;28;20229;-84
2023/12/02 04:13:20;;;;;;;9.63;3.37;;;1.20;99.90;;;;;;5000068;28;20178;-84
2023/12/02 04:15:46;;;;;;;1.90;1.90;;;1.20;99.90;;;;;;5015994;28;20229;-83
2023/12/02 04:18:12;;;;;;;2.40;2.20;;;1.20;99.90;;;;;;5016095;28;20190;-84
2023/12/02 04:20:38;;;;;;;2.97;2.87;;;1.00;99.90;;;;;;5015996;28;20237;-84
2023/12/02 04:23:04;;;;;;;1.83;1.73;;;1.00;99.90;;;;;;5015968;28;20642;-83
2023/12/02 04:25:30;;;;;;;2.67;2.57;;;1.10;99.90;;;;;;5000023;28;20489;-84
2023/12/02 04:27:56;;;;;;;2.17;2.00;;;1.10;99.90;;;;;;5015752;28;20245;-84
2023/12/02 04:30:22;;;;;;;4.53;3.50;;;1.10;99.90;;;;;;5031872;28;20186;-83
2023/12/02 04:32:48;;;;;;;1.13;1.13;;;1.00;99.90;;;;;;5032097;28;20189;-84
2023/12/02 04:35:14;;;;;;;7.67;2.30;;;0.90;99.90;;;;;;5015396;28;20692;-84
2023/12/02 04:37:41;;;;;;;2.70;1.90;;;1.10;99.90;;;;;;5032905;28;20540;-84
2023/12/02 04:40:10;;;;;;;0.93;0.93;;;1.00;99.90;;;;;;5032867;28;20183;-84
2023/12/02 04:42:38;;;;;;;1.23;1.17;;;0.90;99.90;;;;;;5015685;28;20194;-85
2023/12/02 04:45:05;;;;;;;0.93;0.93;;;1.00;99.90;;;;;;5031839;28;20225;-84
2023/12/02 04:47:31;;;;;;;1.87;1.77;;;1.20;99.90;;;;;;5031396;28;20227;-84
2023/12/02 04:49:57;;;;;;;1.43;1.43;;;1.20;99.90;;;;;;5015118;28;20193;-84
2023/12/02 04:52:23;;;;;;;7.10;2.83;;;1.10;99.90;;;;;;5015108;28;20241;-83
2023/12/02 04:54:49;;;;;;;3.30;3.00;;;1.00;99.90;;;;;;5031636;28;20187;-83
2023/12/02 04:57:15;;;;;;;1.90;1.17;;;1.10;99.90;;;;;;5015878;28;20186;-84
2023/12/02 04:59:41;;;;;;;2.13;1.33;;;1.10;99.90;;;;;;5015291;28;20202;-84
2023/12/02 05:02:06;;;;;;;2.37;2.17;;;1.20;99.90;;;;;;5031497;28;20644;-84
2023/12/02 05:04:32;;;;;;;4.40;3.40;;;1.00;99.90;;;;;;5014810;28;20690;-84
2023/12/02 05:06:58;;;;;;;2.73;1.07;;;1.10;99.90;;;;;;5014810;28;20662;-83
2023/12/02 05:09:23;;;;;;;1.93;1.83;;;1.20;99.90;;;;;;5031865;28;20182;-83
2023/12/02 05:11:50;;;;;;;1.90;1.80;;;1.30;99.90;;;;;;5032395;28;20272;-84
2023/12/02 05:14:17;;;;;;;1.50;1.40;;;1.30;99.90;;;;;;5031667;28;20290;-84
2023/12/02 05:16:43;;;;;;;0.90;0.90;;;1.30;99.90;;;;;;5032428;28;20241;-84
2023/12/02 05:19:09;;;;;;;0.63;0.63;;;1.20;99.90;;;;;;5032522;28;20302;-84
2023/12/02 05:21:39;;;;;;;2.53;2.33;;;1.20;99.90;;;;;;5031149;28;20185;-84
2023/12/02 05:24:04;;;;;;;2.20;2.10;;;1.30;99.90;;;;;;5031274;28;20258;-84
2023/12/02 05:26:31;;;;;;;1.00;1.00;;;1.40;99.90;;;;;;5032731;28;20245;-84
2023/12/02 05:28:59;;;;;;;1.63;1.53;;;1.50;99.90;;;;;;5014993;28;20600;-83
2023/12/02 05:31:25;;;;;;;2.10;1.50;;;1.50;99.90;;;;;;5031384;28;20182;-84
2023/12/02 05:33:51;;;;;;;3.23;3.13;;;1.60;99.90;;;;;;4998342;28;20187;-84
2023/12/02 05:36:17;;;;;;;4.57;2.87;;;1.40;99.90;;;;;;5030818;28;20190;-85
2023/12/02 05:38:43;;;;;;;2.53;2.33;;;1.50;99.90;;;;;;5030733;28;20175;-84
2023/12/02 05:41:09;;;;;;;1.03;1.03;;;1.50;99.90;;;;;;5031054;28;20270;-83
2023/12/02 05:43:34;;;;;;;2.00;1.90;;;1.30;99.90;;;;;;5014804;28;20236;-84
2023/12/02 05:46:00;;;;;;;3.80;3.30;;;1.10;99.90;;;;;;5014928;28;20179;-83
2023/12/02 05:48:26;;;;;;;1.60;1.53;;;1.10;99.90;;;;;;5014341;28;20223;-85
2023/12/02 05:50:52;;;;;;;3.97;3.77;;;1.20;99.90;;;;;;5030695;28;20187;-84
2023/12/02 05:53:17;;;;;;;1.97;1.87;;;1.20;99.90;;;;;;5032074;28;20181;-84
2023/12/02 05:55:43;;;;;;;1.70;1.67;;;1.20;99.90;;;;;;5014269;28;20205;-85
2023/12/02 05:58:09;;;;;;;1.50;1.50;;;1.10;99.90;;;;;;5014765;28;20185;-84
2023/12/02 06:00:37;;;;;;;1.13;1.13;;;1.00;99.90;;;;;;5030721;28;20719;-84
2023/12/02 06:03:03;;;;;;;5.37;1.83;;;0.80;99.90;;;;;;5031096;28;20329;-84
2023/12/02 06:05:29;;;;;;;2.20;2.10;;;0.90;99.90;;;;;;4998753;28;20707;-84
2023/12/02 06:07:54;;;;;;;2.43;2.33;;;1.00;99.90;;;;;;5014428;28;20285;-84
2023/12/02 06:10:21;;;;;;;4.27;3.37;;;0.90;99.90;;;;;;5030588;28;20214;-84
2023/12/02 06:12:47;;;;;;;0.50;0.50;;;0.90;99.90;;;;;;5030739;28;20179;-84
2023/12/02 06:15:13;;;;;;;1.03;0.93;;;1.10;99.90;;;;;;5014110;28;20266;-84
2023/12/02 06:17:39;;;;;;;2.77;2.57;;;1.00;99.90;;;;;;4997816;28;20235;-84
2023/12/02 06:20:06;;;;;;;0.87;0.87;;;1.20;99.90;;;;;;5014119;28;20178;-85
2023/12/02 06:22:33;;;;;;;3.90;3.30;;;1.20;99.90;;;;;;5014170;28;20278;-84
2023/12/02 06:24:58;;;;;;;2.50;2.30;;;1.10;99.90;;;;;;4997892;28;20194;-84
2023/12/02 06:27:24;;;;;;;2.90;2.57;;;1.40;99.90;;;;;;5030913;28;20194;-85
2023/12/02 06:29:50;;;;;;;1.07;1.07;;;1.20;99.90;;;;;;5014409;28;20202;-84
2023/12/02 06:32:16;;;;;;;3.10;1.53;;;1.20;99.90;;;;;;5032546;28;20278;-83
2023/12/02 06:34:41;;;;;;;1.77;1.53;;;1.40;99.90;;;;;;5032720;28;20182;-84
2023/12/02 06:37:07;;;;;;;1.50;1.40;;;1.50;99.90;;;;;;5018009;28;20190;-83
2023/12/02 06:39:33;;;;;;;1.47;1.47;;;1.50;99.90;;;;;;5017847;28;20183;-84
2023/12/02 06:41:59;;;;;;;5.23;3.47;;;1.40;99.90;;;;;;5001622;28;20198;-84
2023/12/02 06:44:25;;;;;;;3.17;2.47;;;1.50;99.90;;;;;;5034415;28;20171;-84
2023/12/02 06:46:51;;;;;;;2.70;2.50;;;1.40;99.90;;;;;;5017673;28;20293;-84
2023/12/02 06:49:17;;;;;;;1.80;1.67;;;1.50;99.90;;;;;;5001238;28;20222;-84
2023/12/02 06:51:44;;;;;;;1.30;1.20;;;1.70;99.90;;;;;;5018100;28;20297;-84
2023/12/02 06:54:09;;;;;;;1.50;1.50;;;1.70;99.90;;;;;;5017442;28;20681;-84
2023/12/02 06:56:35;;;;;;;2.70;2.60;;;1.80;99.90;;;;;;5017354;28;20214;-83
2023/12/02 06:59:01;;;;;;;1.67;1.57;;;1.80;99.90;;;;;;5033815;28;20185;-84
2023/12/02 07:01:31;;;;;;;8.83;3.63;;;1.60;99.90;;;;;;5017161;28;20519;-84
2023/12/02 07:03:59;;;;;;;3.50;2.53;;;1.60;99.90;;;;;;5033896;28;20230;-84
2023/12/02 07:06:25;;;;;;;5.27;2.23;;;1.80;99.90;;;;;;5033713;28;20641;-82
2023/12/02 07:08:52;;;;;;;3.40;3.10;;;1.70;99.90;;;;;;5033610;28;20240;-83
2023/12/02 07:11:18;;;;;;;4.03;2.57;;;1.80;99.90;;;;;;5017063;28;20186;-85
2023/12/02 07:13:44;;;;;;;7.40;1.80;;;1.80;99.90;;;;;;5017256;28;20183;-83
2023/12/02 07:16:11;;;;;;;3.07;2.37;;;1.70;99.90;;;;;;5000670;28;20193;-83
2023/12/02 07:18:37;;;;;;;0.90;0.90;;;1.90;99.90;;;;;;5033628;28;20287;-84
2023/12/02 07:21:02;;;;;;;3.53;3.33;;;1.70;99.90;;;;;;5033352;28;20594;-83
2023/12/02 07:23:31;;;;;;;6.00;2.70;;;1.80;99.90;;;;;;5016772;28;20223;-85
2023/12/02 07:25:57;;;;;;;2.23;1.87;;;1.90;99.90;;;;;;5001525;28;20176;-85
2023/12/02 07:28:24;;;;;;;2.07;1.97;;;1.70;99.90;;;;;;5033045;28;20289;-85
2023/12/02 07:30:50;;;;;;;1.77;1.67;;;1.70;99.90;;;;;;5034333;28;20553;-83
2023/12/02 07:33:16;;;;;;;2.13;1.90;;;1.80;99.90;;;;;;5033042;28;20259;-83
2023/12/02 07:35:42;;;;;;;2.50;2.40;;;1.90;99.90;;;;;;5034306;28;20663;-84
2023/12/02 07:38:08;;;;;;;1.93;1.83;;;1.70;99.90;;;;;;5016644;28;20190;-84
2023/12/02 07:40:35;;;;;;;1.30;1.13;;;1.70;99.90;;;;;;5016486;28;20714;-85
2023/12/02 07:43:01;;;;;;;4.07;1.40;;;1.80;99.90;;;;;;5017074;28;20236;-85
2023/12/02 07:45:27;;;;;;;5.40;3.10;;;1.80;99.90;;;;;;5032244;28;20210;-84
2023/12/02 07:47:53;;;;;;;1.10;1.10;;;2.00;99.90;;;;;;5032712;28;20202;-84
2023/12/02 07:50:19;;;;;;;1.70;0.67;;;1.90;99.90;;;;;;5016685;28;20274;-83
2023/12/02 07:52:45;;;;;;;2.37;2.27;;;2.00;99.90;;;;;;5016620;28;20552;-83
2023/12/02 07:55:10;;;;;;;23.97;5.53;;;2.20;99.90;;;;;;5032859;28;20189;-84
2023/12/02 07:57:36;;;;;;;1.13;1.07;;;2.20;99.90;;;;;;5033577;28;20257;-84
2023/12/02 08:00:02;;;;;;;1.87;1.77;;;2.10;99.90;;;;;;5016615;28;20232;-84
2023/12/02 08:02:28;;;;;;;0.93;0.93;;;2.30;99.90;;;;;;5016492;28;20322;-85
2023/12/02 08:04:54;;;;;;;4.90;1.20;;;2.30;99.90;;;;;;5016073;28;20210;-84
2023/12/02 08:07:19;;;;;;;2.00;1.90;;;2.30;99.90;;;;;;5016091;28;20223;-83
2023/12/02 08:09:45;;;;;;;3.27;1.97;;;2.20;99.90;;;;;;4983305;28;20274;-84
2023/12/02 08:12:12;;;;;;;3.90;1.60;;;2.30;99.90;;;;;;4983903;28;20195;-83
2023/12/02 08:14:38;;;;;;;1.10;1.10;;;2.40;99.90;;;;;;5016057;28;20191;-84
2023/12/02 08:17:04;;;;;;;1.13;1.13;;;2.50;99.90;;;;;;4999750;28;20652;-83
2023/12/02 08:19:29;;;;;;;2.87;0.80;;;2.40;99.90;;;;;;4999623;28;20183;-86
2023/12/02 08:21:55;;;;;;;1.43;1.43;;;2.50;99.90;;;;;;4999556;28;20619;-85
2023/12/02 08:24:21;;;;;;;4.33;1.03;;;2.70;99.90;;;;;;4999292;28;20515;-85
2023/12/02 08:26:49;;;;;;;1.00;1.00;;;2.50;99.90;;;;;;5015584;28;20297;-86
2023/12/02 08:29:15;;;;;;;4.13;1.37;;;2.50;99.90;;;;;;5000184;28;20175;-85
2023/12/02 08:31:44;;;;;;;2.30;1.30;;;2.80;99.90;;;;;;4999433;28;20316;-85
2023/12/02 08:34:09;;;;;;;1.30;1.20;;;2.90;99.90;;;;;;4999708;28;20225;-85
2023/12/02 08:36:35;;;;;;;1.27;1.27;;;2.70;99.90;;;;;;4999253;28;20607;-86
2023/12/02 08:39:03;;;;;;;1.30;1.30;;;2.70;99.90;;;;;;5015647;28;20258;-86
2023/12/02 08:41:29;;;;;;;1.93;1.87;;;2.90;99.90;;;;;;4999502;28;20618;-86
2023/12/02 08:43:55;;;;;;;2.50;2.40;;;3.00;99.90;;;;;;4999326;28;20175;-85
2023/12/02 08:46:20;;;;;;;1.57;1.50;;;2.90;99.90;;;;;;4983299;28;20183;-86
2023/12/02 08:48:46;;;;;;;1.43;1.43;;;2.90;99.90;;;;;;5033080;28;20249;-85
2023/12/02 08:51:12;;;;;;;1.13;0.87;;;3.10;99.90;;;;;;5015684;28;20205;-85
2023/12/02 08:53:38;;;;;;;1.00;1.00;;;3.10;99.90;;;;;;5015502;28;20266;-87
2023/12/02 08:56:05;;;;;;;2.03;1.93;;;3.20;99.90;;;;;;4999107;28;20269;-88
2023/12/02 08:58:30;;;;;;;0.40;0.40;;;3.20;99.90;;;;;;5015804;28;20178;-86
2023/12/02 09:00:56;;;;;;;1.10;1.10;;;3.30;99.90;;;;;;4998711;28;20214;-85
2023/12/02 09:03:22;;;;;;;1.10;1.00;;;3.20;99.90;;;;;;5019426;28;20234;-87
2023/12/02 09:05:53;;;;;;;0.93;0.83;;;3.20;99.90;;;;;;5031453;28;20245;-87
2023/12/02 09:08:20;;;;;;;7.43;0.90;;;3.50;99.90;;;;;;5031646;28;20259;-86
2023/12/02 09:10:46;;;;;;;1.17;1.03;;;3.50;99.90;;;;;;5015169;28;20190;-87
2023/12/02 09:13:33;;;;;;;2.60;1.47;;;3.50;99.90;;;;;;5031988;28;20237;-86
2023/12/02 09:16:00;;;;;;;0.83;0.83;;;3.60;99.90;;;;;;5032221;28;20175;-85
2023/12/02 09:18:44;;;;;;;1.33;1.27;;;3.70;99.90;;;;;;5031786;28;20183;-88
2023/12/02 09:21:22;;;;;;;0.77;0.77;;;3.60;99.90;;;;;;5031745;28;20185;-87
2023/12/02 09:23:51;;;;;;;0.70;0.70;;;3.80;99.90;;;;;;5031561;28;20190;-88
2023/12/02 09:26:34;;;;;;;0.50;0.50;;;3.60;99.90;;;;;;5015207;28;20213;-91
2023/12/02 09:29:00;;;;;;;0.87;0.87;;;3.90;99.90;;;;;;5033225;28;20273;-89
2023/12/02 09:31:27;;;;;;;0.60;0.60;;;3.70;99.90;;;;;;5032121;28;20175;-90
2023/12/02 09:34:03;;;;;;;0.60;0.60;;;3.80;99.90;;;;;;5033207;28;20269;-89
2023/12/02 09:36:43;;;;;;;0.87;0.40;;;3.80;99.90;;;;;;5031735;28;20185;-89
2023/12/02 09:39:09;;;;;;;0.73;0.73;;;3.90;99.90;;;;;;5032271;28;20201;-90
2023/12/02 09:41:47;;;;;;;0.57;0.57;;;4.00;99.90;;;;;;5032211;28;20179;-89
2023/12/02 09:44:24;;;;;;;0.27;0.27;;;3.80;99.90;;;;;;5032634;28;20173;-92
2023/12/02 09:47:14;;;;;;;0.60;0.60;;;3.90;99.90;;;;;;5032567;28;20205;-91
2023/12/02 09:49:49;;;;;;;0.83;0.83;;;3.90;99.90;;;;;;5032749;28;20189;-91
2023/12/02 09:52:58;;;;;;;0.30;0.30;;;3.80;99.90;;;;;;5032416;28;20171;-93
2023/12/02 09:55:27;;;;;;;0.30;0.30;;;3.90;99.90;;;;;;5032657;28;20166;-92
2023/12/02 09:58:07;;;;;;;0.40;0.40;;;4.00;99.90;;;;;;5032743;28;20220;-93
2023/12/02 10:00:44;;;;;;;0.43;0.43;;;4.20;99.90;;;;;;5033235;28;20229;-93
2023/12/02 10:03:42;;;;;;;1.70;1.60;;;4.30;99.90;;;;;;5022735;28;20227;-91
2023/12/02 10:06:34;;;;;;;1.00;1.00;;;4.20;99.90;;;;;;4996455;28;20298;-90
2023/12/02 10:09:14;;;;;;;1.50;1.40;;;4.10;99.90;;;;;;5013930;28;20196;-94
2023/12/02 10:11:49;;;;;;;0.30;0.30;;;4.20;99.90;;;;;;5001122;28;20167;-92
2023/12/02 10:14:21;;;;;;;1.37;1.33;;;4.40;99.90;;;;;;5017530;28;20213;-92
2023/12/02 10:16:50;;;;;;;1.43;1.30;;;4.00;99.90;;;;;;4999948;28;20168;-93
2023/12/02 10:19:32;;;;;;;0.90;0.90;;;4.10;99.90;;;;;;5017230;28;20184;-94
2023/12/02 10:22:02;;;;;;;0.43;0.43;;;3.90;99.90;;;;;;5000546;28;20172;-90
2023/12/02 10:25:01;;;;;;;0.70;0.70;;;4.10;99.90;;;;;;5016813;28;20163;-95
2023/12/02 10:27:29;;;;;;;1.30;1.20;;;4.20;99.90;;;;;;4994808;28;20245;-93
2023/12/02 10:30:16;;;;;;;0.50;0.50;;;4.20;99.90;;;;;;4999894;28;20175;-91
2023/12/02 10:33:26;;;;;;;2.20;1.43;;;4.20;99.90;;;;;;4999720;28;20233;-93
2023/12/02 10:35:56;;;;;;;0.40;0.40;;;4.00;99.90;;;;;;4999642;28;20608;-92
2023/12/02 10:38:27;;;;;;;0.40;0.40;;;4.00;99.90;;;;;;5016033;28;20631;-93
2023/12/02 10:41:02;;;;;;;0.43;0.43;;;4.00;99.90;;;;;;5017306;28;20171;-94
2023/12/02 10:43:41;;;;;;;0.33;0.33;;;4.10;99.90;;;;;;5017478;28;20201;-93
2023/12/02 10:46:08;;;;;;;1.83;1.73;;;4.20;99.90;;;;;;4999473;28;20163;-94
2023/12/02 10:48:39;;;;;;;1.00;1.00;;;4.30;99.90;;;;;;4999515;28;20218;-92
2023/12/02 10:51:07;;;;;;;0.97;0.97;;;4.30;99.90;;;;;;4999860;28;20168;-89
2023/12/02 10:53:36;;;;;;;1.33;1.23;;;4.10;99.90;;;;;;5016743;28;20215;-90
2023/12/02 10:56:10;;;;;;;3.17;2.97;;;4.30;99.90;;;;;;4999012;28;20179;-91
2023/12/02 10:58:39;;;;;;;3.17;2.97;;;4.30;99.90;;;;;;4998764;28;20233;-92
2023/12/02 11:01:09;;;;;;;0.87;0.87;;;4.10;99.90;;;;;;5016250;28;20175;-90
2023/12/02 11:03:38;;;;;;;1.40;0.97;;;4.20;99.90;;;;;;5021720;28;20538;-92
2023/12/02 11:06:07;;;;;;;0.50;0.50;;;4.50;99.90;;;;;;5018669;28;20186;-88
2023/12/02 11:08:54;;;;;;;0.43;0.43;;;4.60;99.90;;;;;;5035940;28;20213;-87
2023/12/02 11:11:44;;;;;;;0.50;0.50;;;4.40;99.90;;;;;;5018214;28;20190;-91
2023/12/02 11:14:15;;;;;;;1.80;0.73;;;4.60;99.90;;;;;;5018739;28;20163;-90
2023/12/02 11:17:13;;;;;;;1.67;1.57;;;4.60;99.90;;;;;;5018768;28;20489;-88
2023/12/02 11:20:24;;;;;;;0.67;0.40;;;4.50;99.90;;;;;;5019817;28;20183;-88
2023/12/02 11:23:24;;;;;;;1.00;1.00;;;4.50;99.90;;;;;;4998746;28;20273;-87
2023/12/02 11:26:17;;;;;;;1.17;1.13;;;4.50;99.90;;;;;;4993240;28;20617;-89
2023/12/02 11:29:00;;;;;;;0.40;0.40;;;4.40;99.90;;;;;;5035459;28;20202;-89
2023/12/02 11:31:51;;;;;;;0.70;0.70;;;4.40;99.90;;;;;;5018164;28;20237;-89
2023/12/02 11:34:32;;;;;;;0.63;0.63;;;4.30;99.90;;;;;;5018024;28;20276;-87
2023/12/02 11:37:43;;;;;;;2.20;0.90;;;4.30;99.90;;;;;;5034852;28;20179;-90
2023/12/02 11:40:41;;;;;;;0.30;0.30;;;4.20;99.90;;;;;;4989134;28;20206;-90
2023/12/02 11:43:19;;;;;;;0.90;0.90;;;4.20;99.90;;;;;;5017166;28;20232;-91
2023/12/02 11:46:02;;;;;;;1.00;1.00;;;4.10;99.90;;;;;;5017426;28;20175;-89
2023/12/02 11:48:59;;;;;;;0.20;0.20;;;4.20;99.90;;;;;;5035263;28;20194;-91
2023/12/02 11:51:34;;;;;;;0.77;0.77;;;4.30;99.90;;;;;;5017278;28;20183;-88
2023/12/02 11:54:37;;;;;;;1.17;1.17;;;4.30;99.90;;;;;;5035263;28;20166;-91
2023/12/02 11:57:16;;;;;;;5.67;5.20;;;4.30;99.90;;;;;;5035898;28;20178;-93
2023/12/02 11:59:56;;;;;;;3.57;2.80;;;4.20;99.90;;;;;;5035827;28;20171;-90
2023/12/02 12:02:53;;;;;;;0.77;0.77;;;4.20;99.90;;;;;;5017626;28;20167;-89
2023/12/02 12:05:40;;;;;;;1.13;1.13;;;4.10;99.90;;;;;;4999310;28;20227;-91
2023/12/02 12:08:20;;;;;;;18.67;1.47;;;4.20;99.90;;;;;;5014346;28;20203;-89
2023/12/02 12:10:49;;;;;;;0.47;0.47;;;4.10;99.90;;;;;;5015323;28;20199;-88
2023/12/02 12:13:19;;;;;;;0.50;0.50;;;4.30;99.90;;;;;;4997558;28;20191;-90
2023/12/02 12:15:45;;;;;;;0.40;0.40;;;4.30;99.90;;;;;;4997762;28;20604;-89
2023/12/02 12:18:13;;;;;;;0.37;0.37;;;4.30;99.90;;;;;;4998184;28;20188;-92
2023/12/02 12:20:42;;;;;;;0.30;0.30;;;4.40;99.90;;;;;;4998232;28;20206;-90
2023/12/02 12:23:08;;;;;;;0.23;0.23;;;4.30;99.90;;;;;;4997220;28;20230;-88
2023/12/02 12:25:35;;;;;;;0.50;0.50;;;4.40;99.90;;;;;;4997832;28;20179;-90
2023/12/02 12:28:05;;;;;;;1.40;1.40;;;4.10;99.90;;;;;;5015646;28;20659;-90
2023/12/02 12:30:47;;;;;;;0.73;0.73;;;4.30;99.90;;;;;;5015032;28;20541;-92
2023/12/02 12:33:18;;;;;;;22.93;2.53;;;4.30;99.90;;;;;;5002447;28;20187;-92
2023/12/02 12:35:44;;;;;;;0.30;0.30;;;4.50;99.90;;;;;;5013951;28;20326;-89
2023/12/02 12:38:10;;;;;;;0.53;0.53;;;4.50;99.90;;;;;;4997367;28;20261;-92
2023/12/02 12:40:39;;;;;;;1.97;1.20;;;4.60;99.90;;;;;;4999504;28;20266;-94
2023/12/02 12:43:08;;;;;;;0.60;0.60;;;4.60;99.90;;;;;;4997974;28;20203;-92
2023/12/02 12:45:35;;;;;;;0.60;0.60;;;4.60;99.90;;;;;;5015058;28;20274;-91
2023/12/02 12:48:01;;;;;;;0.67;0.67;;;4.60;99.90;;;;;;5013398;28;20233;-95
2023/12/02 12:50:31;;;;;;;0.40;0.40;;;4.70;99.90;;;;;;4997139;28;20187;-94
2023/12/02 12:53:11;;;;;;;1.13;1.03;;;4.60;99.90;;;;;;5013441;28;20185;-93
2023/12/02 12:55:42;;;;;;;0.30;0.30;;;4.70;99.90;;;;;;5014004;28;20191;-93
2023/12/02 12:58:14;;;;;;;0.60;0.60;;;4.60;99.90;;;;;;5015417;28;20167;-92
2023/12/02 13:00:47;;;;;;;0.40;0.40;;;4.70;99.90;;;;;;5015176;28;20582;-94
2023/12/02 13:03:27;;;;;;;0.40;0.40;;;4.80;99.90;;;;;;4998786;28;20249;-88
2023/12/02 13:06:25;;;;;;;3.00;1.20;;;4.80;99.90;;;;;;5016937;28;20277;-94
2023/12/02 13:09:08;;;;;;;1.07;0.97;;;4.80;99.90;;;;;;5015410;28;20241;-93
2023/12/02 13:11:58;;;;;;;0.67;0.67;;;4.90;99.90;;;;;;5017082;28;20186;-95